Airfield :
LOGIN :

Register | Disclaimer

   EN    FR    IT 

 










Legend :    VFR   Marginal VFR   IFR   Intensive IFR   Very Intensive IFR
Visi :
Ceiling :
>= 8 km
>= 3000ft
5 to 8 km
1000 to 3000 ft
1500m to 5 km
500 to 1000 ft
800 to 1500m
200 to 500 ft
< 800m
< 200 ft
Symbols :   Thunderstorms  Fog  Heavy snow  Heavy precipitations  Wind > 20 kt
SIGMETs :     Misc.  Thunderstorms  Icing  Turbulence  Mountain Waves  Volcanic Ashes







- Airport Elevation : 66 ft
- IATA code : AOK


LGKP - Karpathos

CURRENT METAR :
  • 161150Z 33005KT 280V010 9999 VCTS FEW018CB SCT025 13/07 Q1017

EXPIRED METARs :
  • 161120Z 24005KT 9999 FEW018TCU SCT025 13/07 Q1017
  • 161050Z 20007KT 9999 FEW018TCU BKN025 12/06 Q1017
  • 161020Z 19010KT 9999 FEW020TCU SCT025 12/07 Q1017
  • 160950Z VRB03KT 9999 FEW020TCU SCT025 13/07 Q1017
  • 160920Z 27006KT 9999 SCT020 13/06 Q1017

TAF TAF LGKP
Valid from the 16 at 12:00 until the 16 at 21:00 UTC


161100Z 1612/1621 24010KT 9999 SCT020 SCT060
PROB40
TEMPO 1612/1621 6000 RA
PROB30
TEMPO 1612/1621 4000 SHRA FEW012 FEW018CB BKN020
No reported NOTAMs for that airfield.
1 SIGMET reported for the Athinai FIR (LGGG) :
 
Embedded thunderstorms
LGGG SIGMET 5 VALID 161135/161535 LGAT
LGGG ATHINAI FIR/UIR EMBD TS OBS E OF E02330 AND S OF N3700 STNR NC=



MET'MAP, your aeronautical weather chart ! - Copyright ORBIFLY December 2007 - Disclaimer

ORBIFLY MET'MAP TEAM :

Programming & Development : Alexandra Zaïnal
Concept & Development : Baudouin d'Aumeries
Co-Development & Prog : Marc-Olivier Méhu
Technical & hardware support : Manuel Goepfert

Contact : metmap@orbifly.com




SOURCES & CREDITS :

   NOAA